Valparaiso, IN

4:47 PM CST on December 17, 2014 (GMT -0600)
Valparaiso-N9DPP | Change Station
CLOSE
Current Station
Personal Weather Station
Location: Valparaiso, IN
Elevation: 807 ft
Nearby Weather Stations

Elev 807 ft 41.48 °N, 87.07 °W | Updated 4 minutes ago

Overcast
Overcast
24.6 °F
Feels Like 25 °F
N
0.0
Wind Variable Wind from WSW
Gusts 12.0 mph

Today
High -- | Low -- °F
--% Chance of Precip.
Yesterday
High -- | Low -- °F
Precip. -- in
7:09 AM 4:19 PM
Waning Crescent, 19% visible
Pressure 30.24 in
Visibility 6.0 miles
Clouds Scattered Clouds 2700 ft
Overcast 3300 ft
Windchill 25 °F
Dew Point 20 °F
Humidity 82%
Rainfall 0.00 in
Snow Depth Not available.
UV 0 out of 12
Pollen .10 out of 12
Air Quality Not available.
Flu Activity Not available.
SPECI KVPZ 172236Z AUTO 30006KT 6SM -SN SCT027 OVC033 M04/M08 A3024 RMK AO2 P0000 T10391078 TSNO

More Conditions Fewer Conditions

Pressure 30.24 in
Visibility 6.0 miles
Clouds Scattered Clouds 2700 ft
Overcast 3300 ft
Windchill 25 °F
Dew Point 20 °F
Humidity 82%
Rainfall 0.00 in
Snow Depth Not available.
UV 0 out of 12
Pollen .10 out of 12
Air Quality Not available.
Flu Activity Not available.
SPECI KVPZ 172236Z AUTO 30006KT 6SM -SN SCT027 OVC033 M04/M08 A3024 RMK AO2 P0000 T10391078 TSNO

More Conditions Fewer Conditions

10-Day Weather Forecast

Almanac

Astronomy

Dec. 17, 2014 Rise Set
Actual Time
Civil Twilight
Nautical Twilight
Astronomical Twilight
Moon
Length of Visible Light
Length of Day
Tomorrow will be .
, % of the Moon is Illuminated

Today's Extremes

State Highs State Lows

Community

WunderPhotos

Upload Photos

1,778,813 photos uploaded!

WunderBlogs® & News

Nearby

Air Quality

  Air Quality AQ Index Pollutant
Not available.

Snow Depth

Station Depth Elevation

Earthquake Activity

City Distance Mag. Time & Date
Minimum magnitude displayed is 2.5.

Coastal Water Temperatures

Place Temperature

Nearby Weather Stations